createdAt,value
2023-02-11T00:00:12.444Z,21.12
2023-02-11T00:02:42.520Z,21.09
2023-02-11T00:05:12.613Z,21.10
2023-02-11T00:07:42.636Z,21.09
2023-02-11T00:10:12.663Z,20.99
2023-02-11T00:12:44.271Z,20.96
2023-02-11T00:15:14.275Z,20.94
2023-02-11T00:17:44.066Z,20.89
2023-02-11T00:20:14.145Z,20.92
2023-02-11T00:22:44.806Z,20.94
2023-02-11T00:25:14.799Z,20.89
2023-02-11T00:27:44.789Z,20.79
2023-02-11T00:30:15.573Z,20.74
2023-02-11T00:32:46.123Z,20.71
2023-02-11T00:35:16.348Z,20.57
2023-02-11T00:37:46.339Z,20.52
2023-02-11T00:40:17.253Z,20.51
2023-02-11T00:42:47.828Z,20.55
2023-02-11T00:45:17.897Z,20.54
2023-02-11T00:47:47.888Z,20.55
2023-02-11T00:50:18.168Z,20.58
2023-02-11T00:52:48.025Z,20.63
2023-02-11T00:55:18.525Z,20.61
2023-02-11T00:57:48.691Z,20.49
2023-02-11T01:00:19.536Z,20.44
2023-02-11T01:02:49.822Z,20.44
2023-02-11T01:05:20.531Z,20.30
2023-02-11T01:07:51.114Z,20.18
2023-02-11T01:10:21.234Z,20.17
2023-02-11T01:12:51.085Z,20.18
2023-02-11T01:15:23.334Z,20.18
2023-02-11T01:17:53.509Z,20.16
2023-02-11T01:20:28.033Z,20.16
2023-02-11T01:22:59.528Z,20.07
2023-02-11T01:25:29.802Z,20.00
2023-02-11T01:27:59.975Z,19.98
2023-02-11T01:30:31.876Z,20.01
2023-02-11T01:33:01.923Z,19.92
2023-02-11T01:35:32.474Z,19.92
2023-02-11T01:38:02.658Z,19.89
2023-02-11T01:40:32.680Z,19.86
2023-02-11T01:43:05.272Z,19.72
2023-02-11T01:46:05.857Z,19.76
2023-02-11T01:48:42.133Z,19.72
2023-02-11T01:51:29.387Z,19.67
2023-02-11T01:54:18.095Z,19.65
2023-02-11T01:57:10.966Z,19.66
2023-02-11T01:59:48.929Z,19.55
2023-02-11T02:02:25.058Z,19.52
2023-02-11T02:05:02.373Z,19.51
2023-02-11T02:07:43.094Z,19.51
2023-02-11T02:10:18.932Z,19.51
2023-02-11T02:12:49.040Z,19.49
2023-02-11T02:15:26.054Z,19.39
2023-02-11T02:18:34.592Z,19.41
2023-02-11T02:21:52.154Z,19.45
2023-02-11T02:24:34.827Z,19.38
2023-02-11T02:27:28.573Z,19.42
2023-02-11T02:30:12.645Z,19.42
2023-02-11T02:33:20.553Z,19.46
2023-02-11T02:36:03.320Z,19.42
2023-02-11T02:38:42.457Z,19.31
2023-02-11T02:41:33.931Z,19.29
2023-02-11T02:44:04.815Z,19.32
2023-02-11T02:46:36.059Z,19.28
2023-02-11T02:49:13.769Z,19.27
2023-02-11T02:51:52.724Z,19.25
2023-02-11T02:54:49.679Z,19.24
2023-02-11T02:58:03.446Z,19.24
2023-02-11T03:00:36.380Z,19.15
2023-02-11T03:03:35.024Z,19.10
2023-02-11T03:06:11.524Z,19.12
2023-02-11T03:08:47.375Z,19.04
2023-02-11T03:11:20.843Z,18.91
2023-02-11T03:13:52.676Z,18.96
2023-02-11T03:16:28.721Z,19.06
2023-02-11T03:19:04.603Z,18.94
2023-02-11T03:21:37.226Z,18.86
2023-02-11T03:24:21.021Z,18.97
2023-02-11T03:26:56.044Z,18.93
2023-02-11T03:29:45.498Z,18.84
2023-02-11T03:32:27.125Z,18.87
2023-02-11T03:35:06.925Z,19.03
2023-02-11T03:37:41.299Z,19.03
2023-02-11T03:40:22.162Z,19.03
2023-02-11T03:43:15.329Z,18.91
2023-02-11T03:45:47.642Z,18.86
2023-02-11T03:48:20.214Z,18.76
2023-02-11T03:50:52.564Z,18.70
2023-02-11T03:53:24.386Z,18.73
2023-02-11T03:55:58.410Z,18.71
2023-02-11T03:58:28.396Z,18.57
2023-02-11T04:00:58.319Z,18.59
2023-02-11T04:03:28.317Z,18.64
2023-02-11T04:05:59.279Z,18.63
2023-02-11T04:08:29.350Z,18.64
2023-02-11T04:10:59.369Z,18.61
2023-02-11T04:13:29.362Z,18.56
2023-02-11T04:15:59.237Z,18.56
2023-02-11T04:18:29.435Z,18.53
2023-02-11T04:20:59.235Z,18.47
2023-02-11T04:23:29.224Z,18.46
2023-02-11T04:25:59.429Z,18.46
2023-02-11T04:28:30.763Z,18.35
2023-02-11T04:31:01.049Z,18.38
2023-02-11T04:33:31.045Z,18.39
2023-02-11T04:36:01.025Z,18.35
2023-02-11T04:38:32.513Z,18.29
2023-02-11T04:41:02.407Z,18.30
2023-02-11T04:43:32.531Z,18.33
2023-02-11T04:46:02.395Z,18.30
2023-02-11T04:48:32.604Z,18.25
2023-02-11T04:51:03.823Z,18.26
2023-02-11T04:53:33.894Z,18.26
2023-02-11T04:56:03.730Z,18.22
2023-02-11T04:58:33.539Z,18.21
2023-02-11T05:01:11.994Z,18.21
2023-02-11T05:03:41.917Z,18.24
2023-02-11T05:06:13.744Z,18.13
2023-02-11T05:08:44.978Z,18.08
2023-02-11T05:11:20.833Z,18.10
2023-02-11T05:13:52.805Z,18.05
2023-02-11T05:16:23.083Z,17.95
2023-02-11T05:18:53.337Z,17.95
2023-02-11T05:21:23.734Z,17.97
2023-02-11T05:23:53.754Z,17.95
2023-02-11T05:26:23.868Z,17.92
2023-02-11T05:28:53.691Z,17.92
2023-02-11T05:31:23.674Z,17.89
2023-02-11T05:33:54.761Z,17.89
2023-02-11T05:36:24.737Z,17.81
2023-02-11T05:38:54.887Z,17.85
2023-02-11T05:41:24.709Z,17.82
2023-02-11T05:43:54.666Z,17.78
2023-02-11T05:46:24.844Z,17.75
2023-02-11T05:48:54.954Z,17.81
2023-02-11T05:51:26.413Z,17.77
2023-02-11T05:53:56.533Z,17.75
2023-02-11T05:56:26.360Z,17.74
2023-02-11T05:58:56.340Z,17.71
2023-02-11T06:01:26.476Z,17.70
2023-02-11T06:03:56.379Z,17.60
2023-02-11T06:06:27.752Z,17.60
2023-02-11T06:08:58.079Z,17.63
2023-02-11T06:11:28.088Z,17.58
2023-02-11T06:13:58.011Z,17.55
2023-02-11T06:16:27.941Z,17.53
2023-02-11T06:18:57.934Z,17.53
2023-02-11T06:21:42.453Z,17.54
2023-02-11T06:24:14.382Z,17.55
2023-02-11T06:26:44.386Z,17.54
2023-02-11T06:29:15.138Z,17.48
2023-02-11T06:31:45.245Z,17.50
2023-02-11T06:34:15.490Z,17.53
2023-02-11T06:36:46.435Z,17.54
2023-02-11T06:39:16.676Z,17.51
2023-02-11T06:41:46.653Z,17.43
2023-02-11T06:44:16.617Z,17.36
2023-02-11T06:46:46.860Z,17.39
2023-02-11T06:49:16.865Z,17.43
2023-02-11T06:51:46.932Z,17.43
2023-02-11T06:54:16.948Z,17.39
2023-02-11T06:56:46.900Z,17.30
2023-02-11T06:59:24.425Z,17.27
2023-02-11T07:01:54.541Z,17.22
2023-02-11T07:04:24.607Z,17.15
2023-02-11T07:06:54.386Z,17.20
2023-02-11T07:09:24.409Z,17.19
2023-02-11T07:11:54.598Z,17.16
2023-02-11T07:14:24.629Z,17.12
2023-02-11T07:16:55.341Z,17.18
2023-02-11T07:19:25.546Z,17.23
2023-02-11T07:21:56.321Z,17.18
2023-02-11T07:24:26.310Z,17.18
2023-02-11T07:26:56.279Z,17.18
2023-02-11T07:29:26.312Z,17.16
2023-02-11T07:31:56.202Z,17.10
2023-02-11T07:34:26.686Z,17.18
2023-02-11T07:36:56.653Z,17.16
2023-02-11T07:39:28.524Z,17.15
2023-02-11T07:41:58.771Z,17.13
2023-02-11T07:44:29.581Z,17.06
2023-02-11T07:46:59.751Z,17.00
2023-02-11T07:49:30.084Z,16.99
2023-02-11T07:52:00.044Z,16.96
2023-02-11T07:54:30.231Z,16.83
2023-02-11T07:57:00.200Z,16.82
2023-02-11T07:59:30.173Z,16.86
2023-02-11T08:02:00.379Z,16.92
2023-02-11T08:04:31.214Z,16.89
2023-02-11T08:07:01.404Z,16.90
2023-02-11T08:09:33.459Z,16.82
2023-02-11T08:12:05.864Z,16.82
2023-02-11T08:14:36.012Z,16.76
2023-02-11T08:17:06.143Z,16.73
2023-02-11T08:19:36.173Z,16.71
2023-02-11T08:22:06.238Z,16.75
2023-02-11T08:24:36.410Z,16.72
2023-02-11T08:27:06.421Z,16.69
2023-02-11T08:29:36.278Z,16.59
2023-02-11T08:32:06.261Z,16.61
2023-02-11T08:34:36.181Z,16.64
2023-02-11T08:37:06.147Z,16.64
2023-02-11T08:39:36.312Z,16.67
2023-02-11T08:42:06.369Z,16.62
2023-02-11T08:44:36.325Z,16.57
2023-02-11T08:47:06.882Z,16.57
2023-02-11T08:49:37.460Z,16.51
2023-02-11T08:52:07.570Z,16.45
2023-02-11T08:54:38.523Z,16.45
2023-02-11T08:57:09.063Z,16.51
2023-02-11T08:59:41.164Z,16.49
2023-02-11T09:02:15.940Z,16.52
2023-02-11T09:04:46.075Z,16.49
2023-02-11T09:07:16.048Z,16.48
2023-02-11T09:09:46.025Z,16.55
2023-02-11T09:12:16.197Z,16.54
2023-02-11T09:14:46.189Z,16.55
2023-02-11T09:17:16.185Z,16.57
2023-02-11T09:19:47.286Z,16.57
2023-02-11T09:22:17.476Z,16.55
2023-02-11T09:24:47.647Z,16.58
2023-02-11T09:27:17.475Z,16.62
2023-02-11T09:29:47.469Z,16.67
2023-02-11T09:32:19.361Z,16.65
2023-02-11T09:34:49.334Z,16.68
2023-02-11T09:37:19.561Z,16.85
2023-02-11T09:39:49.512Z,17.18
2023-02-11T09:42:44.112Z,17.54
2023-02-11T09:45:30.061Z,17.85
2023-02-11T09:48:24.182Z,18.16
2023-02-11T09:51:01.810Z,18.49
2023-02-11T09:53:39.167Z,18.77
2023-02-11T09:56:15.353Z,19.14
2023-02-11T09:58:46.450Z,19.35
2023-02-11T10:01:20.887Z,19.56
2023-02-11T10:03:56.684Z,19.79
2023-02-11T10:06:47.008Z,20.07
2023-02-11T10:09:25.663Z,20.38
2023-02-11T10:12:11.247Z,20.71
2023-02-11T10:15:07.798Z,21.03
2023-02-11T10:18:05.262Z,21.15
2023-02-11T10:20:40.018Z,21.36
2023-02-11T10:23:18.300Z,21.65
2023-02-11T10:25:55.592Z,21.81
2023-02-11T10:28:35.068Z,22.02
2023-02-11T10:31:26.273Z,22.36
2023-02-11T10:34:05.105Z,22.60
2023-02-11T10:36:41.371Z,22.73
2023-02-11T10:39:22.662Z,23.04
2023-02-11T10:42:00.803Z,23.32
2023-02-11T10:44:40.705Z,23.86
2023-02-11T10:47:20.406Z,24.09
2023-02-11T10:49:50.786Z,24.33
2023-02-11T10:52:29.410Z,24.54
2023-02-11T10:55:12.240Z,24.63
2023-02-11T10:57:55.621Z,24.54
2023-02-11T11:00:40.005Z,24.81
2023-02-11T11:03:20.946Z,25.35
2023-02-11T11:05:52.419Z,25.49
2023-02-11T11:08:23.121Z,25.56
2023-02-11T11:11:10.142Z,25.84
2023-02-11T11:13:41.638Z,25.80
2023-02-11T11:16:14.376Z,25.94
2023-02-11T11:18:47.096Z,26.02
2023-02-11T11:21:27.505Z,26.71
2023-02-11T11:24:01.924Z,26.79
2023-02-11T11:26:47.063Z,26.39
2023-02-11T11:29:21.484Z,26.66
2023-02-11T11:31:55.358Z,26.53
2023-02-11T11:34:34.242Z,26.42
2023-02-11T11:37:23.035Z,26.59
2023-02-11T11:40:04.193Z,26.69
2023-02-11T11:42:37.605Z,26.62
2023-02-11T11:45:25.904Z,26.87
2023-02-11T11:48:02.037Z,27.41
2023-02-11T11:50:45.740Z,27.81
2023-02-11T11:53:35.441Z,27.92
2023-02-11T11:56:31.198Z,28.15
2023-02-11T11:59:04.934Z,27.88
2023-02-11T12:01:41.111Z,27.74
2023-02-11T12:04:24.601Z,28.12
2023-02-11T12:07:25.971Z,29.11
2023-02-11T12:10:24.416Z,28.88
2023-02-11T12:12:54.600Z,29.14
2023-02-11T12:15:30.717Z,29.03
2023-02-11T12:18:13.744Z,29.01
2023-02-11T12:21:08.720Z,28.56
2023-02-11T12:24:05.572Z,29.10
2023-02-11T12:26:46.367Z,29.29
2023-02-11T12:29:32.944Z,30.06
2023-02-11T12:32:27.545Z,30.52
2023-02-11T12:35:10.564Z,31.02
2023-02-11T12:38:11.780Z,30.23
2023-02-11T12:41:16.449Z,29.74
2023-02-11T12:43:47.229Z,31.29
2023-02-11T12:46:41.603Z,31.41
2023-02-11T12:49:50.846Z,30.98
2023-02-11T12:55:38.300Z,30.69
2023-02-11T12:58:25.442Z,31.10
2023-02-11T13:01:05.615Z,31.22
2023-02-11T13:03:50.534Z,31.34
2023-02-11T13:06:25.600Z,31.12
2023-02-11T13:09:01.827Z,31.25
2023-02-11T13:11:41.768Z,31.80
2023-02-11T13:14:18.715Z,32.08
2023-02-11T13:16:53.023Z,32.45
2023-02-11T13:19:28.543Z,32.84
2023-02-11T13:22:11.474Z,33.95
2023-02-11T13:25:00.891Z,33.61
2023-02-11T13:27:51.998Z,34.19
2023-02-11T13:30:36.159Z,33.65
2023-02-11T13:33:21.360Z,34.67
2023-02-11T13:36:00.735Z,35.55
2023-02-11T13:38:33.965Z,35.79
2023-02-11T13:41:29.612Z,36.67
2023-02-11T13:44:01.433Z,36.68
2023-02-11T13:46:57.264Z,36.94
2023-02-11T13:49:36.764Z,37.65
2023-02-11T13:52:29.841Z,37.81
2023-02-11T13:55:08.442Z,37.43
2023-02-11T13:57:40.736Z,37.02
2023-02-11T14:00:31.539Z,37.60
2023-02-11T14:03:39.562Z,38.59
2023-02-11T14:06:32.061Z,38.62
2023-02-11T14:09:10.770Z,38.48
2023-02-11T14:11:45.507Z,38.21
2023-02-11T14:14:33.173Z,38.04
2023-02-11T14:17:09.041Z,38.28
2023-02-11T14:19:50.622Z,37.98
2023-02-11T14:22:29.033Z,38.27
2023-02-11T14:25:02.232Z,38.06
2023-02-11T14:27:41.730Z,38.68
2023-02-11T14:30:53.912Z,38.64
2023-02-11T14:33:26.925Z,38.69
2023-02-11T14:36:28.645Z,39.06
2023-02-11T14:39:16.818Z,39.33
2023-02-11T14:41:52.077Z,39.02
2023-02-11T14:44:34.543Z,38.79
2023-02-11T14:47:05.228Z,36.92
2023-02-11T14:49:38.683Z,35.93
2023-02-11T14:52:28.221Z,36.33
2023-02-11T14:55:27.183Z,36.47
2023-02-11T14:58:20.354Z,36.19
2023-02-11T15:01:11.837Z,37.21
2023-02-11T15:03:44.720Z,36.63
2023-02-11T15:06:30.506Z,37.32
2023-02-11T15:09:06.294Z,38.08
2023-02-11T15:11:41.716Z,37.47
2023-02-11T15:14:26.678Z,37.81
2023-02-11T15:16:59.666Z,37.60
2023-02-11T15:19:42.197Z,37.87
2023-02-11T15:22:29.571Z,37.70
2023-02-11T15:25:16.101Z,37.03
2023-02-11T15:27:49.314Z,37.72
2023-02-11T15:30:26.595Z,38.47
2023-02-11T15:33:01.319Z,38.44
2023-02-11T15:35:37.821Z,38.66
2023-02-11T15:38:08.608Z,38.15
2023-02-11T15:40:39.564Z,37.38
2023-02-11T15:43:12.306Z,38.01
2023-02-11T15:45:56.497Z,38.37
2023-02-11T15:48:35.680Z,38.20
2023-02-11T15:51:19.141Z,38.15
2023-02-11T15:53:58.102Z,39.23
2023-02-11T15:56:34.433Z,38.99
2023-02-11T15:59:22.472Z,39.65
2023-02-11T16:01:52.895Z,38.54
2023-02-11T16:04:28.575Z,38.25
2023-02-11T16:07:00.006Z,38.51
2023-02-11T16:09:36.705Z,38.56
2023-02-11T16:12:26.162Z,39.80
2023-02-11T16:14:57.736Z,38.76
2023-02-11T16:17:30.429Z,38.59
2023-02-11T16:20:00.775Z,39.75
2023-02-11T16:22:36.513Z,41.04
2023-02-11T16:25:07.274Z,41.40
2023-02-11T16:27:41.787Z,38.24
2023-02-11T16:30:26.227Z,38.39
2023-02-11T16:32:56.671Z,38.06
2023-02-11T16:35:26.852Z,38.85
2023-02-11T16:37:56.687Z,39.54
2023-02-11T16:40:26.677Z,39.24
2023-02-11T16:42:57.240Z,38.93
2023-02-11T16:45:27.969Z,39.16
2023-02-11T16:48:01.757Z,38.31
2023-02-11T16:50:32.061Z,39.03
2023-02-11T16:53:03.325Z,38.66
2023-02-11T16:55:34.992Z,39.47
2023-02-11T16:58:05.352Z,40.00
2023-02-11T17:00:35.457Z,40.42
2023-02-11T17:03:10.597Z,39.33
2023-02-11T17:05:54.686Z,38.17
2023-02-11T17:08:25.587Z,37.46
2023-02-11T17:10:55.802Z,39.31
2023-02-11T17:13:25.847Z,40.42
2023-02-11T17:15:56.399Z,41.64
2023-02-11T17:18:26.798Z,42.37
2023-02-11T17:20:56.833Z,42.63
2023-02-11T17:23:26.878Z,40.76
2023-02-11T17:25:58.098Z,39.10
2023-02-11T17:28:28.181Z,37.08
2023-02-11T17:30:58.380Z,35.32
2023-02-11T17:33:28.678Z,34.49
2023-02-11T17:35:58.695Z,35.21
2023-02-11T17:38:28.875Z,36.96
2023-02-11T17:41:03.004Z,37.26
2023-02-11T17:43:33.704Z,37.60
2023-02-11T17:46:06.799Z,38.29
2023-02-11T17:48:39.926Z,38.31
2023-02-11T17:51:34.062Z,40.15
2023-02-11T17:54:12.767Z,40.78
2023-02-11T17:56:43.762Z,41.03
2023-02-11T17:59:15.325Z,38.91
2023-02-11T18:01:45.564Z,37.49
2023-02-11T18:04:18.856Z,37.57
2023-02-11T18:06:49.049Z,38.80
2023-02-11T18:09:18.862Z,39.60
2023-02-11T18:11:51.703Z,40.52
2023-02-11T18:14:21.531Z,40.62
2023-02-11T18:16:54.279Z,39.75
2023-02-11T18:19:24.336Z,39.43
2023-02-11T18:21:54.539Z,39.87
2023-02-11T18:24:24.522Z,39.80
2023-02-11T18:26:54.695Z,38.38
2023-02-11T18:29:24.951Z,37.84
2023-02-11T18:31:58.943Z,37.16
2023-02-11T18:34:29.809Z,37.55
2023-02-11T18:36:59.957Z,37.45
2023-02-11T18:39:30.379Z,38.27
2023-02-11T18:42:00.813Z,37.50
2023-02-11T18:44:31.063Z,36.79
2023-02-11T18:47:03.950Z,36.92
2023-02-11T18:49:36.797Z,37.07
2023-02-11T18:52:07.090Z,37.16
2023-02-11T18:54:37.245Z,37.18
2023-02-11T18:57:07.142Z,36.61
2023-02-11T18:59:36.968Z,36.48
2023-02-11T19:02:07.125Z,36.66
2023-02-11T19:04:38.499Z,37.18
2023-02-11T19:07:08.772Z,37.29
2023-02-11T19:09:38.872Z,37.42
2023-02-11T19:12:09.760Z,37.11
2023-02-11T19:14:40.335Z,36.30
2023-02-11T19:17:13.343Z,35.73
2023-02-11T19:19:43.730Z,35.79
2023-02-11T19:22:13.841Z,34.97
2023-02-11T19:24:43.848Z,34.84
2023-02-11T19:27:14.450Z,35.17
2023-02-11T19:29:44.600Z,35.38
2023-02-11T19:32:14.805Z,35.10
2023-02-11T19:34:44.922Z,34.98
2023-02-11T19:37:15.325Z,35.11
2023-02-11T19:39:47.558Z,34.94
2023-02-11T19:42:17.569Z,34.68
2023-02-11T19:44:48.107Z,34.20
2023-02-11T19:47:18.196Z,34.16
2023-02-11T19:49:49.206Z,34.01
2023-02-11T19:52:19.431Z,33.89
2023-02-11T19:54:49.340Z,33.86
2023-02-11T19:57:19.460Z,33.91
2023-02-11T19:59:49.674Z,33.85
2023-02-11T20:02:19.895Z,33.96
2023-02-11T20:04:50.161Z,34.27
2023-02-11T20:07:20.331Z,34.29
2023-02-11T20:09:50.322Z,33.89
2023-02-11T20:12:20.335Z,33.41
2023-02-11T20:14:50.553Z,33.26
2023-02-11T20:17:20.416Z,33.21
2023-02-11T20:19:50.309Z,33.23
2023-02-11T20:22:20.484Z,33.10
2023-02-11T20:24:50.547Z,33.18
2023-02-11T20:27:20.547Z,33.24
2023-02-11T20:29:50.423Z,33.27
2023-02-11T20:32:20.344Z,33.10
2023-02-11T20:34:50.388Z,32.87
2023-02-11T20:37:20.474Z,32.79
2023-02-11T20:39:52.094Z,32.91
2023-02-11T20:42:22.237Z,32.73
2023-02-11T20:44:52.384Z,32.65
2023-02-11T20:47:23.836Z,32.42
2023-02-11T20:49:56.729Z,32.35
2023-02-11T20:52:26.917Z,32.09
2023-02-11T20:54:57.118Z,32.08
2023-02-11T20:57:26.953Z,32.12
2023-02-11T20:59:57.011Z,32.02
2023-02-11T21:02:27.203Z,32.02
2023-02-11T21:04:58.124Z,31.82
2023-02-11T21:07:30.340Z,31.66
2023-02-11T21:10:00.432Z,31.50
2023-02-11T21:12:30.686Z,31.41
2023-02-11T21:15:00.734Z,31.33
2023-02-11T21:17:30.939Z,31.20
2023-02-11T21:20:01.188Z,31.09
2023-02-11T21:22:31.476Z,30.83
2023-02-11T21:25:02.289Z,30.65
2023-02-11T21:27:34.488Z,30.35
2023-02-11T21:30:04.551Z,30.12
2023-02-11T21:32:35.065Z,29.84
2023-02-11T21:35:05.128Z,29.61
2023-02-11T21:37:35.563Z,29.38
2023-02-11T21:40:05.703Z,29.32
2023-02-11T21:42:36.637Z,29.28
2023-02-11T21:45:08.605Z,29.26
2023-02-11T21:47:38.593Z,29.15
2023-02-11T21:50:09.201Z,28.95
2023-02-11T21:52:39.212Z,28.75
2023-02-11T21:55:09.317Z,28.45
2023-02-11T21:57:39.558Z,28.31
2023-02-11T22:00:12.074Z,28.13
2023-02-11T22:02:43.537Z,27.99
2023-02-11T22:05:13.619Z,27.88
2023-02-11T22:07:45.212Z,27.80
2023-02-11T22:10:16.151Z,27.67
2023-02-11T22:12:46.623Z,27.51
2023-02-11T22:15:16.646Z,27.40
2023-02-11T22:17:47.604Z,27.22
2023-02-11T22:20:18.197Z,27.10
2023-02-11T22:22:48.422Z,26.89
2023-02-11T22:25:19.150Z,26.79
2023-02-11T22:27:50.062Z,26.59
2023-02-11T22:30:20.433Z,26.60
2023-02-11T22:32:50.601Z,26.53
2023-02-11T22:35:20.657Z,26.42
2023-02-11T22:37:52.232Z,26.29
2023-02-11T22:40:22.124Z,26.17
2023-02-11T22:42:52.358Z,26.05
2023-02-11T22:45:22.395Z,25.81
2023-02-11T22:47:52.387Z,25.62
2023-02-11T22:50:22.544Z,25.42
2023-02-11T22:52:52.533Z,25.33
2023-02-11T22:55:22.534Z,25.22
2023-02-11T22:57:52.671Z,25.14
2023-02-11T23:00:23.020Z,25.01
2023-02-11T23:02:53.065Z,24.95
2023-02-11T23:05:26.391Z,24.85
2023-02-11T23:07:56.389Z,24.61
2023-02-11T23:10:26.545Z,24.61
2023-02-11T23:12:56.872Z,24.59
2023-02-11T23:15:26.915Z,24.57
2023-02-11T23:17:57.159Z,24.53
2023-02-11T23:20:27.682Z,24.46
2023-02-11T23:22:57.886Z,24.41
2023-02-11T23:25:27.907Z,24.39
2023-02-11T23:27:58.011Z,24.30
2023-02-11T23:30:28.405Z,24.14
2023-02-11T23:32:58.413Z,24.12
2023-02-11T23:35:28.445Z,24.05
2023-02-11T23:37:58.673Z,24.02
2023-02-11T23:40:28.780Z,23.95
2023-02-11T23:42:58.773Z,23.81
2023-02-11T23:45:29.091Z,23.79
2023-02-11T23:47:58.941Z,23.65
2023-02-11T23:50:29.780Z,23.58
2023-02-11T23:52:59.778Z,23.54
2023-02-11T23:55:29.771Z,23.54
2023-02-11T23:57:59.803Z,23.52
